« 定点 富山空港 2020/6/21 sun | トップページ | 懐古蔵出:年の瀬 東京国際空港 2001/12/29 sat »

2020/06/23

定点 富山空港 2020/6/23 tue

RJNT 222300Z VRB03KT 9999 FEW015 24/20 Q1010

20200623_rjnt_00ja213a

20200623_rjnt_01ja213a

ANA313 RJTT-RJNT JA213A A320-271N

RJNT 230000Z 34003KT 250V060 9999 SCT015 25/18 Q1010

20200623_rjnt_02ja213a

20200623_rjnt_03ja213a

ANA316 RJNT-RJTT JA213A A320-271N

RJNT 230100Z 35005KT 270V040 9999 FEW015 SCT030 25/17 Q1010

20200623_rjnt_04ja139t

JA139T↑ AW139 富山県警察

20200623_rjnt_05ja9785

JA9785↑ AS350B TKB

RJNT 230200Z 04004KT 330V090 9999 FEW030 26/16 Q1009

20200623_rjnt_06ja888p

JA888P↓ C208 KKK JA01ADはいなかった

20200623_rjnt_07ja9785

JA9785↓ JA9878は稼働無

20200623_rjnt_08ja139t

JA139T↓

20200623_rjnt_09ja139t

ダウンウォッシュの中には、入らないように

20200623_rjnt_10ja139t

午前で撤収

|

« 定点 富山空港 2020/6/21 sun | トップページ | 懐古蔵出:年の瀬 東京国際空港 2001/12/29 sat »

富山空港」カテゴリの記事

コメント

コメントを書く



(ウェブ上には掲載しません)


コメントは記事投稿者が公開するまで表示されません。



« 定点 富山空港 2020/6/21 sun | トップページ | 懐古蔵出:年の瀬 東京国際空港 2001/12/29 sat »